Creston, South Carolina
Current Conditions -  °F | °C
As of 2:53 PM on Friday 24 Oct 2014 (Local Time) from KOGB Reporting Station
Clear Clear  
Wind Chill: 71°   Ceiling: Unl
Heat Index: 71°   Visibility: 10mi
Dew Point: 45°   Wind: 5mph
Humidity: 39%   Direction: 290°WNW
Pressure: 30"   Gusts: NA
Location:  33.5645°N, 80.6572°W
Report Text: KOGB 241853Z AUTO 29004KT 10SM CLR 22/07 A3000 RMK AO2 SLP155 T02170072
Loading
Personal Weather Stations






























Interactive Weather Map
Tropical Storm Tracking
New forecast layout! Learn more

10-Day Weather Forecast

Advertisements
Track Severe Weather on mobile